createdAt,value
2023-01-30T00:01:32.324Z,4.80
2023-01-30T00:04:57.607Z,7.13
2023-01-30T00:08:21.936Z,5.10
2023-01-30T00:11:46.741Z,5.50
2023-01-30T00:15:11.424Z,4.70
2023-01-30T00:18:35.196Z,6.33
2023-01-30T00:21:59.951Z,5.33
2023-01-30T00:25:23.789Z,5.13
2023-01-30T00:28:47.710Z,6.10
2023-01-30T00:32:11.519Z,5.57
2023-01-30T00:35:37.481Z,6.40
2023-01-30T00:39:02.327Z,5.70
2023-01-30T00:42:43.678Z,5.63
2023-01-30T00:46:33.161Z,6.17
2023-01-30T00:49:57.048Z,5.40
2023-01-30T00:53:20.795Z,5.50
2023-01-30T00:56:47.163Z,6.43
2023-01-30T01:00:13.083Z,5.20
2023-01-30T01:03:38.296Z,6.33
2023-01-30T01:07:02.802Z,7.00
2023-01-30T01:10:26.959Z,6.33
2023-01-30T01:13:53.869Z,6.23
2023-01-30T01:17:17.920Z,6.50
2023-01-30T01:20:42.093Z,5.57
2023-01-30T01:24:06.494Z,7.17
2023-01-30T01:27:32.513Z,4.57
2023-01-30T01:30:58.213Z,5.10
2023-01-30T01:34:22.573Z,5.13
2023-01-30T01:37:47.184Z,5.53
2023-01-30T01:41:13.047Z,6.30
2023-01-30T01:45:05.534Z,5.90
2023-01-30T01:48:35.928Z,5.50
2023-01-30T01:52:06.158Z,5.40
2023-01-30T01:55:31.976Z,5.10
2023-01-30T01:58:59.503Z,6.80
2023-01-30T02:02:23.591Z,6.50
2023-01-30T02:05:56.069Z,6.27
2023-01-30T02:09:21.311Z,5.47
2023-01-30T02:12:47.912Z,7.77
2023-01-30T02:16:12.015Z,5.80
2023-01-30T02:19:49.967Z,5.23
2023-01-30T02:24:20.137Z,7.10
2023-01-30T02:28:07.574Z,5.77
2023-01-30T02:31:40.601Z,5.00
2023-01-30T02:35:18.436Z,4.67
2023-01-30T02:39:00.578Z,5.63
2023-01-30T02:42:32.145Z,5.90
2023-01-30T02:46:01.608Z,6.53
2023-01-30T02:49:33.797Z,7.27
2023-01-30T02:52:59.018Z,4.87
2023-01-30T02:56:22.996Z,5.97
2023-01-30T02:59:53.737Z,5.90
2023-01-30T03:03:40.871Z,5.13
2023-01-30T03:07:26.447Z,5.17
2023-01-30T03:10:59.716Z,5.10
2023-01-30T03:14:32.029Z,7.60
2023-01-30T03:17:57.031Z,5.50
2023-01-30T03:21:21.342Z,5.00
2023-01-30T03:24:46.508Z,6.30
2023-01-30T03:28:12.209Z,4.30
2023-01-30T03:31:36.211Z,5.93
2023-01-30T03:35:00.009Z,6.20
2023-01-30T03:38:23.938Z,7.93
2023-01-30T03:41:48.861Z,5.57
2023-01-30T03:45:14.442Z,6.77
2023-01-30T03:48:39.031Z,6.20
2023-01-30T03:52:02.704Z,5.90
2023-01-30T03:55:26.196Z,5.60
2023-01-30T03:58:51.100Z,5.67
2023-01-30T04:02:23.026Z,5.80
2023-01-30T04:05:47.493Z,8.73
2023-01-30T04:09:11.332Z,5.63
2023-01-30T04:12:42.289Z,7.37
2023-01-30T04:16:19.809Z,5.93
2023-01-30T04:20:12.926Z,6.47
2023-01-30T04:23:43.284Z,6.57
2023-01-30T04:27:07.117Z,6.90
2023-01-30T04:30:35.901Z,5.37
2023-01-30T04:34:30.369Z,6.63
2023-01-30T04:37:54.744Z,5.50
2023-01-30T04:41:18.727Z,6.47
2023-01-30T04:44:42.717Z,6.23
2023-01-30T04:48:14.678Z,6.37
2023-01-30T04:51:40.903Z,5.43
2023-01-30T04:55:05.225Z,5.93
2023-01-30T04:58:29.190Z,6.03
2023-01-30T05:01:53.447Z,5.43
2023-01-30T05:05:17.927Z,7.87
2023-01-30T05:08:46.914Z,5.70
2023-01-30T05:12:10.801Z,7.00
2023-01-30T05:15:35.316Z,5.90
2023-01-30T05:18:59.226Z,6.27
2023-01-30T05:22:23.011Z,5.87
2023-01-30T05:25:48.435Z,7.17
2023-01-30T05:29:12.360Z,5.63
2023-01-30T05:32:36.223Z,6.37
2023-01-30T05:36:00.290Z,7.37
2023-01-30T05:39:23.833Z,8.10
2023-01-30T05:42:49.023Z,6.63
2023-01-30T05:46:15.948Z,6.50
2023-01-30T05:49:40.208Z,6.40
2023-01-30T05:53:04.457Z,5.57
2023-01-30T05:56:28.299Z,6.00
2023-01-30T05:59:53.204Z,5.70
2023-01-30T06:03:17.032Z,6.67
2023-01-30T06:06:40.928Z,5.70
2023-01-30T06:10:05.191Z,6.97
2023-01-30T06:13:28.974Z,5.53
2023-01-30T06:16:53.896Z,5.23
2023-01-30T06:20:17.958Z,8.67
2023-01-30T06:23:41.470Z,5.80
2023-01-30T06:27:05.471Z,6.10
2023-01-30T06:30:29.490Z,8.03
2023-01-30T06:33:54.365Z,6.40
2023-01-30T06:37:17.874Z,7.00
2023-01-30T06:40:42.769Z,5.10
2023-01-30T06:44:06.753Z,6.00
2023-01-30T06:47:30.243Z,7.40
2023-01-30T06:50:55.452Z,6.07
2023-01-30T06:54:18.923Z,5.23
2023-01-30T06:57:43.079Z,6.77
2023-01-30T07:01:06.864Z,5.80
2023-01-30T07:04:30.760Z,6.00
2023-01-30T07:07:56.724Z,5.97
2023-01-30T07:11:20.622Z,4.40
2023-01-30T07:14:44.627Z,5.70
2023-01-30T07:18:09.140Z,5.33
2023-01-30T07:21:33.031Z,5.30
2023-01-30T07:24:58.264Z,6.40
2023-01-30T07:28:22.232Z,6.30
2023-01-30T07:31:45.783Z,6.13
2023-01-30T07:35:10.425Z,4.60
2023-01-30T07:38:34.356Z,5.30
2023-01-30T07:42:02.128Z,5.53
2023-01-30T07:45:26.277Z,5.63
2023-01-30T07:48:49.902Z,4.90
2023-01-30T07:52:13.889Z,6.10
2023-01-30T07:55:37.886Z,4.73
2023-01-30T07:59:05.617Z,4.83
2023-01-30T08:02:29.566Z,5.10
2023-01-30T08:05:53.957Z,7.50
2023-01-30T08:09:17.802Z,6.73
2023-01-30T08:12:42.260Z,5.03
2023-01-30T08:16:08.957Z,6.30
2023-01-30T08:19:32.416Z,4.37
2023-01-30T08:22:56.742Z,4.83
2023-01-30T08:26:20.803Z,5.50
2023-01-30T08:29:45.651Z,7.70
2023-01-30T08:33:10.887Z,5.93
2023-01-30T08:36:34.704Z,5.00
2023-01-30T08:39:58.522Z,4.80
2023-01-30T08:43:22.273Z,4.80
2023-01-30T08:46:46.146Z,6.07
2023-01-30T08:50:12.729Z,5.90
2023-01-30T08:53:36.633Z,5.87
2023-01-30T08:57:00.708Z,3.93
2023-01-30T09:00:24.872Z,5.83
2023-01-30T09:03:48.828Z,5.63
2023-01-30T09:07:13.718Z,5.20
2023-01-30T09:10:37.345Z,6.67
2023-01-30T09:14:01.173Z,4.20
2023-01-30T09:17:25.279Z,4.80
2023-01-30T09:20:49.132Z,4.40
2023-01-30T09:24:14.139Z,3.80
2023-01-30T09:27:38.000Z,4.47
2023-01-30T09:31:04.879Z,3.17
2023-01-30T09:34:29.229Z,3.63
2023-01-30T09:37:55.018Z,3.97
2023-01-30T09:41:47.004Z,4.40
2023-01-30T09:45:38.453Z,4.47
2023-01-30T09:49:18.208Z,3.33
2023-01-30T09:52:54.540Z,4.17
2023-01-30T09:56:18.199Z,3.77
2023-01-30T09:59:55.459Z,4.20
2023-01-30T10:03:21.660Z,3.40
2023-01-30T10:07:00.782Z,3.43
2023-01-30T10:10:46.738Z,3.33
2023-01-30T10:14:26.206Z,3.53
2023-01-30T10:18:27.116Z,5.20
2023-01-30T10:22:00.413Z,3.63
2023-01-30T10:25:32.526Z,3.03
2023-01-30T10:29:07.846Z,2.80
2023-01-30T10:32:39.268Z,3.40
2023-01-30T10:36:09.033Z,2.60
2023-01-30T10:39:54.245Z,2.60
2023-01-30T10:43:28.063Z,2.90
2023-01-30T10:47:08.566Z,2.33
2023-01-30T10:50:51.511Z,2.23
2023-01-30T10:54:25.455Z,2.63
2023-01-30T10:57:58.171Z,2.47
2023-01-30T11:01:26.393Z,4.00
2023-01-30T11:04:57.621Z,2.70
2023-01-30T11:08:25.213Z,1.97
2023-01-30T11:11:52.800Z,2.20
2023-01-30T11:15:16.864Z,1.90
2023-01-30T11:19:18.774Z,2.13
2023-01-30T11:22:34.761Z,2.13
2023-01-30T11:26:10.935Z,2.70
2023-01-30T11:29:39.420Z,2.80
2023-01-30T11:33:14.409Z,3.67
2023-01-30T11:36:38.951Z,2.67
2023-01-30T11:40:21.574Z,2.43
2023-01-30T11:43:46.109Z,2.70
2023-01-30T11:47:26.647Z,2.73
2023-01-30T11:51:01.366Z,2.87
2023-01-30T11:54:35.127Z,2.63
2023-01-30T11:58:00.616Z,4.00
2023-01-30T12:01:29.298Z,2.83
2023-01-30T12:04:58.246Z,2.60
2023-01-30T12:08:41.824Z,2.67
2023-01-30T12:12:35.773Z,2.43
2023-01-30T12:16:18.985Z,3.10
2023-01-30T12:20:03.607Z,3.10
2023-01-30T12:23:46.178Z,2.80
2023-01-30T12:27:22.239Z,2.57
2023-01-30T12:30:53.079Z,2.70
2023-01-30T12:34:19.236Z,3.20
2023-01-30T12:38:05.229Z,3.00
2023-01-30T12:41:45.599Z,2.73
2023-01-30T12:45:27.370Z,2.53
2023-01-30T12:49:22.251Z,2.57
2023-01-30T12:53:38.814Z,2.93
2023-01-30T12:57:19.679Z,3.00
2023-01-30T13:00:58.795Z,3.20
2023-01-30T13:04:34.499Z,2.90
2023-01-30T13:08:33.526Z,2.43
2023-01-30T13:12:10.275Z,3.47
2023-01-30T13:15:43.888Z,3.73
2023-01-30T13:19:19.254Z,4.03
2023-01-30T13:22:54.022Z,3.27
2023-01-30T13:26:22.902Z,3.30
2023-01-30T13:29:49.723Z,3.20
2023-01-30T13:33:15.953Z,3.30
2023-01-30T13:36:52.448Z,2.83
2023-01-30T13:40:21.198Z,2.70
2023-01-30T13:43:53.930Z,2.50
2023-01-30T13:47:33.458Z,2.43
2023-01-30T13:51:15.632Z,3.03
2023-01-30T13:54:51.809Z,2.90
2023-01-30T13:58:33.236Z,2.50
2023-01-30T14:02:20.561Z,2.63
2023-01-30T14:06:24.159Z,3.23
2023-01-30T14:09:53.013Z,3.00
2023-01-30T14:13:18.899Z,3.03
2023-01-30T14:16:46.408Z,2.70
2023-01-30T14:20:21.250Z,4.80
2023-01-30T14:23:57.557Z,2.63
2023-01-30T14:27:32.142Z,2.27
2023-01-30T14:30:59.079Z,1.70
2023-01-30T14:34:41.320Z,3.40
2023-01-30T14:38:16.960Z,1.77
2023-01-30T14:41:42.665Z,1.80
2023-01-30T14:45:16.926Z,2.07
2023-01-30T14:48:45.247Z,2.27
2023-01-30T14:52:31.519Z,2.03
2023-01-30T14:56:04.268Z,2.33
2023-01-30T14:59:31.575Z,1.73
2023-01-30T15:03:01.264Z,1.80
2023-01-30T15:06:27.459Z,4.70
2023-01-30T15:09:56.128Z,2.83
2023-01-30T15:13:53.234Z,2.43
2023-01-30T15:17:28.515Z,2.93
2023-01-30T15:21:10.038Z,2.53
2023-01-30T15:24:55.868Z,2.40
2023-01-30T15:28:36.024Z,2.73
2023-01-30T15:32:14.818Z,3.50
2023-01-30T15:35:38.325Z,3.43
2023-01-30T15:39:05.123Z,3.20
2023-01-30T15:42:29.130Z,3.00
2023-01-30T15:46:10.076Z,2.40
2023-01-30T15:49:57.931Z,3.60
2023-01-30T15:53:28.372Z,3.00
2023-01-30T15:56:52.597Z,2.50
2023-01-30T16:00:26.570Z,2.60
2023-01-30T16:03:53.295Z,2.73
2023-01-30T16:07:26.340Z,3.53
2023-01-30T16:10:51.766Z,2.87
2023-01-30T16:14:17.646Z,3.97
2023-01-30T16:17:42.039Z,2.57
2023-01-30T16:21:10.476Z,2.60
2023-01-30T16:24:38.733Z,2.50
2023-01-30T16:28:02.778Z,3.73
2023-01-30T16:31:27.445Z,3.10
2023-01-30T16:34:51.701Z,2.93
2023-01-30T16:38:36.786Z,2.10
2023-01-30T16:42:05.093Z,3.70
2023-01-30T16:46:14.359Z,2.87
2023-01-30T16:49:47.459Z,3.73
2023-01-30T16:53:15.856Z,3.10
2023-01-30T16:56:46.141Z,3.80
2023-01-30T17:00:25.341Z,3.00
2023-01-30T17:03:58.532Z,3.30
2023-01-30T17:07:36.042Z,2.87
2023-01-30T17:11:01.313Z,3.53
2023-01-30T17:14:26.020Z,4.00
2023-01-30T17:17:51.292Z,3.20
2023-01-30T17:21:16.120Z,3.37
2023-01-30T17:24:39.930Z,3.40
2023-01-30T17:28:05.684Z,4.20
2023-01-30T17:31:29.541Z,6.07
2023-01-30T17:34:56.005Z,2.07
2023-01-30T17:38:19.501Z,3.30
2023-01-30T17:41:44.788Z,4.23
2023-01-30T17:45:10.410Z,2.93
2023-01-30T17:48:34.264Z,3.00
2023-01-30T17:52:00.331Z,3.17
2023-01-30T17:55:23.845Z,4.20
2023-01-30T17:58:47.419Z,3.30
2023-01-30T18:02:11.487Z,3.33
2023-01-30T18:05:35.353Z,4.20
2023-01-30T18:09:00.499Z,5.97
2023-01-30T18:12:24.476Z,4.00
2023-01-30T18:15:48.050Z,6.20
2023-01-30T18:19:14.814Z,2.93
2023-01-30T18:22:38.265Z,4.67
2023-01-30T18:26:03.482Z,4.63
2023-01-30T18:29:27.346Z,5.50
2023-01-30T18:32:53.392Z,3.90
2023-01-30T18:36:19.677Z,4.83
2023-01-30T18:39:43.466Z,3.70
2023-01-30T18:43:08.423Z,4.70
2023-01-30T18:46:32.741Z,3.60
2023-01-30T18:49:56.743Z,5.60
2023-01-30T18:53:20.660Z,3.40
2023-01-30T18:56:44.309Z,7.07
2023-01-30T19:00:11.472Z,3.30
2023-01-30T19:03:35.287Z,3.60
2023-01-30T19:06:58.719Z,4.60
2023-01-30T19:10:22.534Z,6.60
2023-01-30T19:13:45.619Z,4.90
2023-01-30T19:17:11.007Z,5.33
2023-01-30T19:20:34.764Z,4.47
2023-01-30T19:23:59.693Z,5.53
2023-01-30T19:27:23.542Z,4.53
2023-01-30T19:30:47.479Z,4.50
2023-01-30T19:34:13.851Z,3.17
2023-01-30T19:37:38.447Z,3.03
2023-01-30T19:41:02.329Z,3.53
2023-01-30T19:44:26.175Z,3.10
2023-01-30T19:47:49.997Z,2.70
2023-01-30T19:51:17.567Z,3.40
2023-01-30T19:54:41.121Z,4.63
2023-01-30T19:58:04.972Z,5.00
2023-01-30T20:01:32.887Z,4.07
2023-01-30T20:04:58.213Z,4.40
2023-01-30T20:08:32.173Z,3.20
2023-01-30T20:11:56.652Z,3.93
2023-01-30T20:15:20.632Z,4.43
2023-01-30T20:18:46.066Z,3.60
2023-01-30T20:22:10.183Z,4.13
2023-01-30T20:25:38.498Z,5.10
2023-01-30T20:29:03.388Z,2.87
2023-01-30T20:32:27.267Z,5.23
2023-01-30T20:35:50.713Z,3.80
2023-01-30T20:39:16.818Z,3.57
2023-01-30T20:42:42.100Z,4.60
2023-01-30T20:46:07.871Z,3.03
2023-01-30T20:49:31.337Z,4.93
2023-01-30T20:52:55.399Z,4.87
2023-01-30T20:56:20.049Z,4.00
2023-01-30T20:59:46.793Z,4.40
2023-01-30T21:03:10.655Z,4.30
2023-01-30T21:06:41.388Z,5.10
2023-01-30T21:10:07.991Z,4.10
2023-01-30T21:13:31.880Z,6.67
2023-01-30T21:16:57.128Z,3.50
2023-01-30T21:20:21.893Z,4.27
2023-01-30T21:23:46.675Z,2.90
2023-01-30T21:27:10.518Z,3.97
2023-01-30T21:30:37.364Z,6.10
2023-01-30T21:34:03.127Z,3.80
2023-01-30T21:37:44.277Z,4.23
2023-01-30T21:41:27.830Z,8.90
2023-01-30T21:44:51.639Z,3.50
2023-01-30T21:48:15.096Z,5.43
2023-01-30T21:51:42.984Z,4.50
2023-01-30T21:55:07.353Z,7.10
2023-01-30T21:58:32.296Z,4.20
2023-01-30T22:01:56.365Z,4.20
2023-01-30T22:05:20.576Z,5.33
2023-01-30T22:08:45.831Z,6.47
2023-01-30T22:12:10.816Z,8.77
2023-01-30T22:15:34.732Z,6.47
2023-01-30T22:19:00.219Z,5.30
2023-01-30T22:22:26.425Z,4.13
2023-01-30T22:25:56.407Z,3.97
2023-01-30T22:29:19.966Z,5.30
2023-01-30T22:32:43.471Z,4.27
2023-01-30T22:36:08.908Z,5.57
2023-01-30T22:39:32.808Z,5.33
2023-01-30T22:42:57.692Z,5.80
2023-01-30T22:46:23.411Z,4.77
2023-01-30T22:49:47.266Z,4.47
2023-01-30T22:53:11.104Z,3.63
2023-01-30T22:56:38.528Z,4.17
2023-01-30T23:00:03.499Z,4.53
2023-01-30T23:03:27.769Z,6.43
2023-01-30T23:06:53.220Z,5.07
2023-01-30T23:10:17.900Z,3.70
2023-01-30T23:13:43.127Z,6.67
2023-01-30T23:17:23.000Z,3.90
2023-01-30T23:20:46.740Z,5.90
2023-01-30T23:24:14.809Z,4.10
2023-01-30T23:27:39.052Z,7.30
2023-01-30T23:31:08.035Z,6.33
2023-01-30T23:34:32.874Z,4.30
2023-01-30T23:38:14.847Z,4.13
2023-01-30T23:41:39.936Z,7.00
2023-01-30T23:45:03.870Z,5.30
2023-01-30T23:48:27.380Z,4.57
2023-01-30T23:51:52.657Z,6.50
2023-01-30T23:55:16.628Z,3.90
2023-01-30T23:58:41.609Z,8.20
